createdAt,value
2023-05-21T00:01:20.433Z,13.61
2023-05-21T00:12:13.314Z,13.50
2023-05-21T00:23:06.349Z,13.65
2023-05-21T00:34:00.768Z,13.66
2023-05-21T00:44:37.403Z,13.68
2023-05-21T00:55:37.931Z,13.70
2023-05-21T01:06:35.176Z,13.80
2023-05-21T01:17:13.486Z,14.03
2023-05-21T01:28:11.548Z,14.03
2023-05-21T01:38:50.300Z,13.99
2023-05-21T01:49:27.807Z,14.07
2023-05-21T02:00:14.327Z,14.21
2023-05-21T02:10:52.501Z,14.03
2023-05-21T02:21:33.061Z,13.89
2023-05-21T02:32:29.372Z,13.58
2023-05-21T02:43:21.825Z,13.45
2023-05-21T02:54:19.329Z,13.25
2023-05-21T03:05:14.388Z,13.11
2023-05-21T03:16:09.624Z,13.07
2023-05-21T03:27:04.986Z,13.18
2023-05-21T03:38:04.483Z,13.14
2023-05-21T03:49:01.918Z,13.07
2023-05-21T04:00:00.372Z,13.09
2023-05-21T04:10:38.529Z,13.18
2023-05-21T04:21:34.604Z,13.81
2023-05-21T04:32:12.354Z,13.83
2023-05-21T04:43:07.874Z,14.09
2023-05-21T04:54:05.585Z,14.49
2023-05-21T05:05:02.097Z,14.87
2023-05-21T05:15:40.949Z,15.28
2023-05-21T05:26:37.317Z,15.96
2023-05-21T05:37:34.728Z,16.60
2023-05-21T05:48:33.380Z,17.53
2023-05-21T05:59:30.826Z,17.66
2023-05-21T06:10:27.030Z,17.81
2023-05-21T06:21:16.368Z,18.44
2023-05-21T06:32:04.785Z,19.06
2023-05-21T06:42:46.497Z,19.27
2023-05-21T06:53:23.643Z,19.48
2023-05-21T07:04:12.264Z,19.68
2023-05-21T07:15:08.872Z,19.60
2023-05-21T07:25:54.936Z,20.27
2023-05-21T07:36:45.833Z,20.47
2023-05-21T07:47:37.176Z,21.11
2023-05-21T07:58:26.658Z,21.69
2023-05-21T08:09:17.671Z,21.17
2023-05-21T08:20:12.621Z,21.72
2023-05-21T08:30:55.233Z,21.95
2023-05-21T08:41:38.616Z,22.28
2023-05-21T08:52:34.764Z,22.56
2023-05-21T09:03:30.673Z,22.31
2023-05-21T09:14:03.610Z,22.37
2023-05-21T09:24:56.872Z,23.33
2023-05-21T09:35:52.649Z,23.95
2023-05-21T09:46:42.725Z,23.27
2023-05-21T09:57:33.010Z,23.18
2023-05-21T10:08:30.307Z,23.07
2023-05-21T10:19:06.184Z,23.17
2023-05-21T10:29:49.814Z,24.10
2023-05-21T10:40:42.126Z,23.95
2023-05-21T10:51:21.986Z,24.42
2023-05-21T11:01:56.728Z,25.79
2023-05-21T11:12:37.543Z,24.50
2023-05-21T11:23:34.190Z,24.97
2023-05-21T11:34:20.443Z,23.89
2023-05-21T11:45:09.083Z,24.66
2023-05-21T11:55:55.660Z,27.16
2023-05-21T12:06:54.268Z,25.31
2023-05-21T12:17:43.462Z,29.75
2023-05-21T12:28:33.695Z,31.31
2023-05-21T12:39:32.073Z,32.11
2023-05-21T12:50:32.501Z,31.60
2023-05-21T13:01:22.741Z,28.65
2023-05-21T13:11:59.031Z,31.76
2023-05-21T13:22:47.338Z,31.20
2023-05-21T13:33:29.754Z,31.52
2023-05-21T13:44:23.533Z,32.05
2023-05-21T13:55:19.071Z,30.99
2023-05-21T14:06:18.770Z,32.24
2023-05-21T14:17:18.596Z,31.53
2023-05-21T14:28:16.392Z,30.93
2023-05-21T14:39:15.382Z,30.00
2023-05-21T14:50:16.013Z,29.18
2023-05-21T15:01:12.779Z,30.32
2023-05-21T15:12:07.698Z,29.11
2023-05-21T15:23:15.317Z,27.94
2023-05-21T15:33:45.690Z,27.34
2023-05-21T15:44:26.764Z,25.84
2023-05-21T15:55:10.917Z,24.59
2023-05-21T16:06:09.245Z,24.27
2023-05-21T16:17:09.517Z,24.10
2023-05-21T16:28:07.550Z,23.86
2023-05-21T16:39:05.875Z,23.92
2023-05-21T16:50:04.658Z,23.68
2023-05-21T17:01:04.322Z,23.33
2023-05-21T17:12:03.519Z,23.34
2023-05-21T17:22:58.870Z,23.07
2023-05-21T17:33:49.421Z,22.94
2023-05-21T17:44:46.220Z,22.68
2023-05-21T17:55:46.210Z,22.32
2023-05-21T18:06:41.963Z,21.11
2023-05-21T18:17:39.359Z,20.30
2023-05-21T18:28:33.402Z,19.71
2023-05-21T18:39:32.904Z,19.17
2023-05-21T18:50:31.874Z,18.79
2023-05-21T19:01:05.586Z,18.34
2023-05-21T19:12:00.927Z,17.89
2023-05-21T19:22:59.345Z,17.64
2023-05-21T19:33:54.818Z,17.33
2023-05-21T19:44:46.543Z,17.11
2023-05-21T19:55:42.315Z,16.74
2023-05-21T20:06:40.232Z,16.60
2023-05-21T20:17:36.666Z,16.50
2023-05-21T20:28:36.388Z,16.22
2023-05-21T20:39:32.287Z,16.04
2023-05-21T20:50:31.825Z,15.86
2023-05-21T21:01:26.677Z,15.64
2023-05-21T21:12:26.588Z,15.57
2023-05-21T21:23:22.634Z,15.35
2023-05-21T21:34:23.225Z,15.27
2023-05-21T21:45:22.662Z,15.09
2023-05-21T21:56:15.324Z,14.98
2023-05-21T22:07:16.090Z,14.91
2023-05-21T22:18:20.379Z,15.09
2023-05-21T22:29:20.680Z,15.01
2023-05-21T22:40:21.597Z,14.97
2023-05-21T22:51:20.729Z,15.01
2023-05-21T23:02:20.797Z,14.64
2023-05-21T23:13:21.665Z,14.57
2023-05-21T23:24:22.775Z,14.41
2023-05-21T23:35:23.659Z,14.32
2023-05-21T23:46:25.393Z,14.27
2023-05-21T23:57:22.345Z,14.21
